createdAt,value
2022-08-11T00:00:14.425Z,13.31
2022-08-11T00:03:13.214Z,13.27
2022-08-11T00:05:51.877Z,13.24
2022-08-11T00:08:27.546Z,13.22
2022-08-11T00:11:02.727Z,13.18
2022-08-11T00:13:40.833Z,13.13
2022-08-11T00:16:25.956Z,13.05
2022-08-11T00:18:57.872Z,13.00
2022-08-11T00:21:32.524Z,12.94
2022-08-11T00:24:18.695Z,12.89
2022-08-11T00:26:55.097Z,12.86
2022-08-11T00:29:23.887Z,12.84
2022-08-11T00:31:56.484Z,12.76
2022-08-11T00:34:31.590Z,12.67
2022-08-11T00:37:20.382Z,12.58
2022-08-11T00:39:54.938Z,12.50
2022-08-11T00:42:35.448Z,12.48
2022-08-11T00:45:26.240Z,12.46
2022-08-11T00:48:30.231Z,12.43
2022-08-11T00:52:04.028Z,12.46
2022-08-11T00:54:49.972Z,12.51
2022-08-11T00:57:38.368Z,12.56
2022-08-11T01:00:26.000Z,12.55
2022-08-11T01:03:40.584Z,12.52
2022-08-11T01:06:55.341Z,12.42
2022-08-11T01:10:03.786Z,12.37
2022-08-11T01:13:04.040Z,12.28
2022-08-11T01:15:57.203Z,12.29
2022-08-11T01:19:12.024Z,12.29
2022-08-11T01:21:58.774Z,12.30
2022-08-11T01:25:02.196Z,12.32
2022-08-11T01:28:04.160Z,12.25
2022-08-11T01:30:39.397Z,12.23
2022-08-11T01:33:48.334Z,12.16
2022-08-11T01:37:13.401Z,12.18
2022-08-11T01:40:19.533Z,12.22
2022-08-11T01:44:09.855Z,12.35
2022-08-11T01:46:56.723Z,12.76
2022-08-11T01:50:06.968Z,12.90
2022-08-11T01:52:56.297Z,13.07
2022-08-11T01:55:58.136Z,13.25
2022-08-11T01:59:10.414Z,13.46
2022-08-11T02:02:50.310Z,13.66
2022-08-11T02:05:32.668Z,13.86
2022-08-11T02:08:20.416Z,14.01
2022-08-11T02:11:31.818Z,14.10
2022-08-11T02:15:12.587Z,14.22
2022-08-11T02:18:10.635Z,14.32
2022-08-11T02:21:27.479Z,14.36
2022-08-11T02:24:07.993Z,14.38
2022-08-11T02:27:21.875Z,14.41
2022-08-11T02:30:07.936Z,14.42
2022-08-11T02:33:29.528Z,14.43
2022-08-11T02:36:11.094Z,14.41
2022-08-11T02:39:25.182Z,14.42
2022-08-11T02:42:32.376Z,14.46
2022-08-11T02:45:07.626Z,14.49
2022-08-11T02:48:16.889Z,14.54
2022-08-11T02:51:09.539Z,14.58
2022-08-11T02:53:56.299Z,14.60
2022-08-11T02:57:11.780Z,14.62
2022-08-11T03:00:08.420Z,14.66
2022-08-11T03:03:05.969Z,14.67
2022-08-11T03:06:08.168Z,14.68
2022-08-11T03:08:52.693Z,14.70
2022-08-11T03:11:42.407Z,14.65
2022-08-11T03:15:13.407Z,14.63
2022-08-11T03:18:06.998Z,14.57
2022-08-11T03:21:21.325Z,14.51
2022-08-11T03:24:21.949Z,14.46
2022-08-11T03:27:27.497Z,14.43
2022-08-11T03:30:06.595Z,14.40
2022-08-11T03:33:20.745Z,14.38
2022-08-11T03:36:13.578Z,14.36
2022-08-11T03:39:03.264Z,14.37
2022-08-11T03:42:16.626Z,14.35
2022-08-11T03:45:47.269Z,14.37
2022-08-11T03:49:05.996Z,14.38
2022-08-11T03:52:05.786Z,14.39
2022-08-11T03:55:15.181Z,14.41
2022-08-11T03:58:30.003Z,14.44
2022-08-11T04:01:34.323Z,14.47
2022-08-11T04:04:48.285Z,14.48
2022-08-11T04:08:09.543Z,14.51
2022-08-11T04:10:59.679Z,14.55
2022-08-11T04:14:23.580Z,14.61
2022-08-11T04:17:41.390Z,14.66
2022-08-11T04:20:26.487Z,14.71
2022-08-11T04:24:34.813Z,14.77
2022-08-11T04:27:02.058Z,14.86
2022-08-11T04:30:17.686Z,14.88
2022-08-11T04:33:23.574Z,14.95
2022-08-11T04:36:42.202Z,15.01
2022-08-11T04:40:02.433Z,15.08
2022-08-11T04:43:20.881Z,15.14
2022-08-11T04:46:18.224Z,15.23
2022-08-11T04:49:58.984Z,15.27
2022-08-11T04:53:52.303Z,15.37
2022-08-11T04:56:43.358Z,15.45
2022-08-11T05:00:09.964Z,15.51
2022-08-11T05:03:08.952Z,15.67
2022-08-11T05:06:01.938Z,15.79
2022-08-11T05:08:38.989Z,15.88
2022-08-11T05:11:42.600Z,15.90
2022-08-11T05:14:29.233Z,16.01
2022-08-11T05:17:25.493Z,16.10
2022-08-11T05:20:12.650Z,16.19
2022-08-11T05:23:08.100Z,16.27
2022-08-11T05:26:43.389Z,16.25
2022-08-11T05:29:20.333Z,16.29
2022-08-11T05:32:19.256Z,16.34
2022-08-11T05:34:56.598Z,16.39
2022-08-11T05:37:32.087Z,16.46
2022-08-11T05:40:31.816Z,16.49
2022-08-11T05:43:26.018Z,16.53
2022-08-11T05:46:25.800Z,16.57
2022-08-11T05:49:13.173Z,16.69
2022-08-11T05:52:04.995Z,16.75
2022-08-11T05:54:54.322Z,16.80
2022-08-11T05:57:48.874Z,16.76
2022-08-11T06:00:21.109Z,16.87
2022-08-11T06:02:55.907Z,16.94
2022-08-11T06:05:44.476Z,17.06
2022-08-11T06:08:14.797Z,17.15
2022-08-11T06:10:45.478Z,17.15
2022-08-11T06:13:18.431Z,17.19
2022-08-11T06:15:50.951Z,17.24
2022-08-11T06:18:20.163Z,17.29
2022-08-11T06:20:52.084Z,17.38
2022-08-11T06:23:23.327Z,17.50
2022-08-11T06:25:56.510Z,17.55
2022-08-11T06:28:38.600Z,17.63
2022-08-11T06:31:24.420Z,17.71
2022-08-11T06:34:31.355Z,17.83
2022-08-11T06:37:23.907Z,17.86
2022-08-11T06:40:11.890Z,18.02
2022-08-11T06:42:46.129Z,18.07
2022-08-11T06:45:40.661Z,18.16
2022-08-11T06:48:16.718Z,18.13
2022-08-11T06:51:10.927Z,18.15
2022-08-11T06:54:03.384Z,18.21
2022-08-11T06:57:26.201Z,18.34
2022-08-11T07:00:08.192Z,18.18
2022-08-11T07:02:49.619Z,18.22
2022-08-11T07:05:38.030Z,18.36
2022-08-11T07:09:01.951Z,18.46
2022-08-11T07:12:18.395Z,18.55
2022-08-11T07:15:15.788Z,18.68
2022-08-11T07:18:11.895Z,18.73
2022-08-11T07:21:02.381Z,18.90
2022-08-11T07:23:55.126Z,19.05
2022-08-11T07:26:46.137Z,19.16
2022-08-11T07:29:16.802Z,19.29
2022-08-11T07:31:52.115Z,19.38
2022-08-11T07:34:40.702Z,19.37
2022-08-11T07:37:18.063Z,19.46
2022-08-11T07:39:49.365Z,19.54
2022-08-11T07:42:22.828Z,19.60
2022-08-11T07:45:12.986Z,19.69
2022-08-11T07:48:01.603Z,19.78
2022-08-11T07:50:52.969Z,19.78
2022-08-11T07:53:24.999Z,19.78
2022-08-11T07:55:58.308Z,19.94
2022-08-11T07:58:52.404Z,20.09
2022-08-11T08:01:43.668Z,20.23
2022-08-11T08:04:36.129Z,20.35
2022-08-11T08:07:24.690Z,20.50
2022-08-11T08:10:14.207Z,20.68
2022-08-11T08:13:04.101Z,20.79
2022-08-11T08:15:51.367Z,20.91
2022-08-11T08:18:26.917Z,21.05
2022-08-11T08:21:12.269Z,21.28
2022-08-11T08:23:53.755Z,21.45
2022-08-11T08:26:48.251Z,21.56
2022-08-11T08:29:40.734Z,21.58
2022-08-11T08:32:11.391Z,21.64
2022-08-11T08:34:43.547Z,21.54
2022-08-11T08:37:15.751Z,21.63
2022-08-11T08:40:02.086Z,21.76
2022-08-11T08:42:41.761Z,21.97
2022-08-11T08:45:16.477Z,21.99
2022-08-11T08:48:02.110Z,22.01
2022-08-11T08:50:54.253Z,22.20
2022-08-11T08:53:29.716Z,22.42
2022-08-11T08:56:01.175Z,22.49
2022-08-11T08:58:31.419Z,22.57
2022-08-11T09:01:01.250Z,22.41
2022-08-11T09:04:07.154Z,22.45
2022-08-11T09:07:38.547Z,22.54
2022-08-11T09:11:41.881Z,22.82
2022-08-11T09:15:00.092Z,23.13
2022-08-11T09:18:06.325Z,23.43
2022-08-11T09:20:37.257Z,23.55
2022-08-11T09:24:07.689Z,23.51
2022-08-11T09:26:35.776Z,23.47
2022-08-11T09:29:05.444Z,23.46
2022-08-11T09:31:39.639Z,23.26
2022-08-11T09:34:11.853Z,23.30
2022-08-11T09:37:01.745Z,23.51
2022-08-11T09:39:50.862Z,23.39
2022-08-11T09:42:23.129Z,23.33
2022-08-11T09:44:53.938Z,23.40
2022-08-11T09:47:30.503Z,23.56
2022-08-11T09:50:02.320Z,23.72
2022-08-11T09:52:38.138Z,23.85
2022-08-11T09:55:11.640Z,23.81
2022-08-11T09:58:04.888Z,23.66
2022-08-11T10:00:40.487Z,23.68
2022-08-11T10:03:31.504Z,23.74
2022-08-11T10:06:32.834Z,23.70
2022-08-11T10:09:06.473Z,23.67
2022-08-11T10:11:37.678Z,23.72
2022-08-11T10:14:34.626Z,23.80
2022-08-11T10:17:10.651Z,24.04
2022-08-11T10:19:40.263Z,24.18
2022-08-11T10:22:27.991Z,24.20
2022-08-11T10:25:54.369Z,24.24
2022-08-11T10:28:33.601Z,24.27
2022-08-11T10:31:29.048Z,24.37
2022-08-11T10:34:13.403Z,24.31
2022-08-11T10:36:48.551Z,24.52
2022-08-11T10:39:21.449Z,24.86
2022-08-11T10:42:12.369Z,24.96
2022-08-11T10:44:48.068Z,25.03
2022-08-11T10:47:35.786Z,25.24
2022-08-11T10:50:31.647Z,25.47
2022-08-11T10:53:20.057Z,25.60
2022-08-11T10:56:07.803Z,25.37
2022-08-11T10:58:49.163Z,25.47
2022-08-11T11:01:26.140Z,25.43
2022-08-11T11:04:12.245Z,25.46
2022-08-11T11:07:08.211Z,25.45
2022-08-11T11:09:47.650Z,25.46
2022-08-11T11:13:00.780Z,25.50
2022-08-11T11:15:53.401Z,25.59
2022-08-11T11:18:37.766Z,25.57
2022-08-11T11:21:20.572Z,25.74
2022-08-11T11:24:12.103Z,25.77
2022-08-11T11:27:26.650Z,26.01
2022-08-11T11:30:09.463Z,26.57
2022-08-11T11:32:59.500Z,26.88
2022-08-11T11:35:44.827Z,26.84
2022-08-11T11:38:14.266Z,26.58
2022-08-11T11:40:43.570Z,26.46
2022-08-11T11:43:12.336Z,26.19
2022-08-11T11:45:42.446Z,25.88
2022-08-11T11:48:12.292Z,25.82
2022-08-11T11:50:41.470Z,25.93
2022-08-11T11:53:12.703Z,26.20
2022-08-11T11:55:42.192Z,26.67
2022-08-11T11:58:29.614Z,26.62
2022-08-11T12:01:19.190Z,26.66
2022-08-11T12:03:51.196Z,26.99
2022-08-11T12:06:25.385Z,27.05
2022-08-11T12:08:58.064Z,26.88
2022-08-11T12:11:48.484Z,26.50
2022-08-11T12:14:21.490Z,26.22
2022-08-11T12:16:51.940Z,26.11
2022-08-11T12:19:26.733Z,26.04
2022-08-11T12:22:17.693Z,25.91
2022-08-11T12:25:05.835Z,25.73
2022-08-11T12:27:35.458Z,25.71
2022-08-11T12:30:09.657Z,26.06
2022-08-11T12:32:40.851Z,26.51
2022-08-11T12:35:11.675Z,26.43
2022-08-11T12:37:45.530Z,26.12
2022-08-11T12:41:13.714Z,25.85
2022-08-11T12:43:56.656Z,25.80
2022-08-11T12:46:38.074Z,26.44
2022-08-11T12:49:44.737Z,27.21
2022-08-11T12:52:24.162Z,28.00
2022-08-11T12:55:35.571Z,28.66
2022-08-11T12:58:17.326Z,29.15
2022-08-11T13:01:06.766Z,29.38
2022-08-11T13:04:00.583Z,29.22
2022-08-11T13:06:30.497Z,28.96
2022-08-11T13:09:01.502Z,28.93
2022-08-11T13:11:56.577Z,29.03
2022-08-11T13:14:28.780Z,29.33
2022-08-11T13:17:17.161Z,29.40
2022-08-11T13:19:49.563Z,29.70
2022-08-11T13:22:20.704Z,30.06
2022-08-11T13:24:52.026Z,30.42
2022-08-11T13:27:21.424Z,30.81
2022-08-11T13:30:11.868Z,30.93
2022-08-11T13:32:45.229Z,30.78
2022-08-11T13:35:17.595Z,30.62
2022-08-11T13:38:18.354Z,30.62
2022-08-11T13:40:55.214Z,30.82
2022-08-11T13:43:26.102Z,30.61
2022-08-11T13:46:16.979Z,30.35
2022-08-11T13:48:45.879Z,30.06
2022-08-11T13:51:34.764Z,30.54
2022-08-11T13:54:11.502Z,30.81
2022-08-11T13:56:46.885Z,30.87
2022-08-11T13:59:30.071Z,31.29
2022-08-11T14:02:28.533Z,31.08
2022-08-11T14:05:03.289Z,30.93
2022-08-11T14:07:40.060Z,30.93
2022-08-11T14:10:12.464Z,31.43
2022-08-11T14:13:06.081Z,31.66
2022-08-11T14:15:36.153Z,31.68
2022-08-11T14:18:14.114Z,32.15
2022-08-11T14:21:03.493Z,32.25
2022-08-11T14:23:39.493Z,32.32
2022-08-11T14:26:29.679Z,32.07
2022-08-11T14:29:08.474Z,32.26
2022-08-11T14:31:57.801Z,32.53
2022-08-11T14:34:29.666Z,32.54
2022-08-11T14:37:03.099Z,32.46
2022-08-11T14:40:03.968Z,32.38
2022-08-11T14:42:51.689Z,32.25
2022-08-11T14:45:57.461Z,32.53
2022-08-11T14:48:27.655Z,32.70
2022-08-11T14:50:57.201Z,32.75
2022-08-11T14:53:25.840Z,32.67
2022-08-11T14:56:13.379Z,32.53
2022-08-11T14:58:43.520Z,32.57
2022-08-11T15:01:53.647Z,32.80
2022-08-11T15:04:35.949Z,33.37
2022-08-11T15:07:17.069Z,33.67
2022-08-11T15:10:11.677Z,33.64
2022-08-11T15:12:37.390Z,33.41
2022-08-11T15:15:26.494Z,33.11
2022-08-11T15:18:00.402Z,33.02
2022-08-11T15:20:48.546Z,32.85
2022-08-11T15:23:40.833Z,32.69
2022-08-11T15:26:50.072Z,32.54
2022-08-11T15:30:08.716Z,32.54
2022-08-11T15:33:00.114Z,33.05
2022-08-11T15:35:51.166Z,33.14
2022-08-11T15:38:21.795Z,32.86
2022-08-11T15:41:14.112Z,32.77
2022-08-11T15:44:10.542Z,32.73
2022-08-11T15:46:46.331Z,32.20
2022-08-11T15:50:11.925Z,32.39
2022-08-11T15:52:25.823Z,32.05
2022-08-11T15:54:59.648Z,32.15
2022-08-11T15:57:49.214Z,32.10
2022-08-11T16:00:37.823Z,32.38
2022-08-11T16:04:06.029Z,32.97
2022-08-11T16:06:17.493Z,33.12
2022-08-11T16:08:46.609Z,33.03
2022-08-11T16:11:17.165Z,32.86
2022-08-11T16:13:45.785Z,32.52
2022-08-11T16:16:15.783Z,32.30
2022-08-11T16:18:56.861Z,32.17
2022-08-11T16:21:36.009Z,32.44
2022-08-11T16:27:03.989Z,32.21
2022-08-11T16:27:13.033Z,31.28
2022-08-11T16:29:48.146Z,30.15
2022-08-11T16:32:22.276Z,28.79
2022-08-11T16:35:19.266Z,27.95
2022-08-11T16:38:45.525Z,27.31
2022-08-11T16:41:42.613Z,26.84
2022-08-11T16:44:37.270Z,26.22
2022-08-11T16:47:10.341Z,25.88
2022-08-11T16:49:52.472Z,25.64
2022-08-11T16:52:24.177Z,25.37
2022-08-11T16:54:53.323Z,25.22
2022-08-11T16:57:46.072Z,25.08
2022-08-11T17:00:17.626Z,24.82
2022-08-11T17:03:12.143Z,24.72
2022-08-11T17:06:07.602Z,24.58
2022-08-11T17:09:02.091Z,24.43
2022-08-11T17:12:04.537Z,24.32
2022-08-11T17:14:40.851Z,24.18
2022-08-11T17:17:18.647Z,24.02
2022-08-11T17:20:40.287Z,23.93
2022-08-11T17:23:03.820Z,23.80
2022-08-11T17:26:03.623Z,23.64
2022-08-11T17:28:24.554Z,23.51
2022-08-11T17:31:22.407Z,23.39
2022-08-11T17:34:11.337Z,23.26
2022-08-11T17:36:45.788Z,23.15
2022-08-11T17:39:15.995Z,23.03
2022-08-11T17:42:03.868Z,22.92
2022-08-11T17:44:53.207Z,22.77
2022-08-11T17:47:40.630Z,22.63
2022-08-11T17:50:18.079Z,22.49
2022-08-11T17:53:07.527Z,22.37
2022-08-11T17:55:58.244Z,22.24
2022-08-11T17:58:46.821Z,22.07
2022-08-11T18:01:17.406Z,21.90
2022-08-11T18:03:57.802Z,21.77
2022-08-11T18:06:33.931Z,21.60
2022-08-11T18:09:26.660Z,21.45
2022-08-11T18:12:16.209Z,21.31
2022-08-11T18:15:07.943Z,21.17
2022-08-11T18:18:00.355Z,21.02
2022-08-11T18:20:48.034Z,20.89
2022-08-11T18:23:46.008Z,20.77
2022-08-11T18:26:39.914Z,20.67
2022-08-11T18:29:28.822Z,20.57
2022-08-11T18:32:20.803Z,20.47
2022-08-11T18:35:14.899Z,20.40
2022-08-11T18:38:07.848Z,20.31
2022-08-11T18:40:55.943Z,20.23
2022-08-11T18:43:46.397Z,20.15
2022-08-11T18:46:36.901Z,20.08
2022-08-11T18:50:04.031Z,20.00
2022-08-11T18:52:47.046Z,19.93
2022-08-11T18:55:37.610Z,19.89
2022-08-11T18:58:28.838Z,19.85
2022-08-11T19:01:18.989Z,19.79
2022-08-11T19:04:10.729Z,19.80
2022-08-11T19:07:02.495Z,19.84
2022-08-11T19:09:51.257Z,19.91
2022-08-11T19:12:39.144Z,20.01
2022-08-11T19:15:28.221Z,20.11
2022-08-11T19:18:16.884Z,20.14
2022-08-11T19:21:04.425Z,20.15
2022-08-11T19:24:01.858Z,20.14
2022-08-11T19:26:52.482Z,20.14
2022-08-11T19:30:07.674Z,20.14
2022-08-11T19:32:50.734Z,20.14
2022-08-11T19:35:39.071Z,20.11
2022-08-11T19:38:27.397Z,20.05
2022-08-11T19:41:18.410Z,19.97
2022-08-11T19:44:25.796Z,19.87
2022-08-11T19:47:13.990Z,19.82
2022-08-11T19:50:02.730Z,19.79
2022-08-11T19:52:50.370Z,19.80
2022-08-11T19:55:38.493Z,19.78
2022-08-11T19:58:27.664Z,19.76
2022-08-11T20:01:14.969Z,19.76
2022-08-11T20:04:02.814Z,19.74
2022-08-11T20:06:51.436Z,19.75
2022-08-11T20:10:06.036Z,19.77
2022-08-11T20:12:48.611Z,19.77
2022-08-11T20:15:38.484Z,19.77
2022-08-11T20:18:29.619Z,19.72
2022-08-11T20:21:27.886Z,19.69
2022-08-11T20:24:20.812Z,19.67
2022-08-11T20:27:07.975Z,19.68
2022-08-11T20:30:15.228Z,19.68
2022-08-11T20:33:03.485Z,19.66
2022-08-11T20:35:53.742Z,19.63
2022-08-11T20:38:43.457Z,19.59
2022-08-11T20:41:32.074Z,19.57
2022-08-11T20:44:40.768Z,19.55
2022-08-11T20:47:29.040Z,19.55
2022-08-11T20:50:20.530Z,19.54
2022-08-11T20:53:08.929Z,19.54
2022-08-11T20:55:57.027Z,19.53
2022-08-11T20:59:13.969Z,19.49
2022-08-11T21:01:55.086Z,19.45
2022-08-11T21:04:54.117Z,19.43
2022-08-11T21:07:55.551Z,19.41
2022-08-11T21:10:51.404Z,19.37
2022-08-11T21:14:01.732Z,19.31
2022-08-11T21:16:54.697Z,19.26
2022-08-11T21:19:59.533Z,19.21
2022-08-11T21:23:08.678Z,19.19
2022-08-11T21:26:06.889Z,19.21
2022-08-11T21:28:58.895Z,19.20
2022-08-11T21:31:49.777Z,19.20
2022-08-11T21:34:40.635Z,19.17
2022-08-11T21:37:31.083Z,19.14
2022-08-11T21:40:21.053Z,19.13
2022-08-11T21:43:10.516Z,19.13
2022-08-11T21:45:59.657Z,19.12
2022-08-11T21:48:48.201Z,19.10
2022-08-11T21:51:35.714Z,19.05
2022-08-11T21:54:23.672Z,18.99
2022-08-11T21:57:11.631Z,18.93
2022-08-11T22:00:16.670Z,18.89
2022-08-11T22:03:06.026Z,18.85
2022-08-11T22:05:54.318Z,18.80
2022-08-11T22:08:41.594Z,18.78
2022-08-11T22:11:32.095Z,18.75
2022-08-11T22:14:21.070Z,18.73
2022-08-11T22:17:09.137Z,18.71
2022-08-11T22:19:58.341Z,18.69
2022-08-11T22:22:52.929Z,18.68
2022-08-11T22:25:51.007Z,18.64
2022-08-11T22:28:41.868Z,18.61
2022-08-11T22:31:31.015Z,18.59
2022-08-11T22:34:18.849Z,18.57
2022-08-11T22:37:08.707Z,18.53
2022-08-11T22:39:59.578Z,18.49
2022-08-11T22:42:51.512Z,18.46
2022-08-11T22:45:39.776Z,18.43
2022-08-11T22:48:29.536Z,18.40
2022-08-11T22:51:18.068Z,18.37
2022-08-11T22:54:06.989Z,18.36
2022-08-11T22:56:54.351Z,18.34
2022-08-11T22:59:43.061Z,18.34
2022-08-11T23:02:30.953Z,18.34
2022-08-11T23:05:18.867Z,18.35
2022-08-11T23:08:06.944Z,18.35
2022-08-11T23:10:55.168Z,18.33
2022-08-11T23:13:42.459Z,18.32
2022-08-11T23:16:29.812Z,18.33
2022-08-11T23:20:08.640Z,18.36
2022-08-11T23:22:24.497Z,18.40
2022-08-11T23:25:31.366Z,18.40
2022-08-11T23:28:20.152Z,18.43
2022-08-11T23:31:12.295Z,18.47
2022-08-11T23:34:03.812Z,18.51
2022-08-11T23:36:50.852Z,18.54
2022-08-11T23:39:38.173Z,18.55
2022-08-11T23:42:25.693Z,18.54
2022-08-11T23:45:12.440Z,18.53
2022-08-11T23:48:00.731Z,18.49
2022-08-11T23:50:48.466Z,18.44
2022-08-11T23:53:36.945Z,18.38
2022-08-11T23:56:24.963Z,18.35
2022-08-11T23:59:17.307Z,18.29
